sensor_id;sensor_type;location;lat;lon;timestamp;P1;durP1;ratioP1;P2;durP2;ratioP2
15818;SDS011;8010;53.986;12.106;2022-11-23T00:00:56;41.67;;;15.40;;
15818;SDS011;8010;53.986;12.106;2022-11-23T00:03:22;38.43;;;15.90;;
15818;SDS011;8010;53.986;12.106;2022-11-23T00:05:47;45.73;;;15.70;;
15818;SDS011;8010;53.986;12.106;2022-11-23T00:08:13;41.90;;;15.30;;
15818;SDS011;8010;53.986;12.106;2022-11-23T00:10:38;42.90;;;14.60;;
15818;SDS011;8010;53.986;12.106;2022-11-23T00:13:04;43.73;;;14.93;;
15818;SDS011;8010;53.986;12.106;2022-11-23T00:15:30;37.90;;;14.03;;
15818;SDS011;8010;53.986;12.106;2022-11-23T00:17:56;41.50;;;14.90;;
15818;SDS011;8010;53.986;12.106;2022-11-23T00:20:24;39.60;;;15.43;;
15818;SDS011;8010;53.986;12.106;2022-11-23T00:22:49;35.07;;;14.27;;
15818;SDS011;8010;53.986;12.106;2022-11-23T00:25:15;35.63;;;13.80;;
15818;SDS011;8010;53.986;12.106;2022-11-23T00:27:40;41.57;;;15.10;;
15818;SDS011;8010;53.986;12.106;2022-11-23T00:30:06;48.90;;;16.60;;
15818;SDS011;8010;53.986;12.106;2022-11-23T00:32:32;42.67;;;15.87;;
15818;SDS011;8010;53.986;12.106;2022-11-23T00:34:58;40.17;;;14.93;;
15818;SDS011;8010;53.986;12.106;2022-11-23T00:37:23;38.60;;;14.00;;
15818;SDS011;8010;53.986;12.106;2022-11-23T00:39:49;41.83;;;16.33;;
15818;SDS011;8010;53.986;12.106;2022-11-23T00:42:14;38.23;;;15.00;;
15818;SDS011;8010;53.986;12.106;2022-11-23T00:44:40;36.90;;;14.77;;
15818;SDS011;8010;53.986;12.106;2022-11-23T00:47:05;40.83;;;15.07;;
15818;SDS011;8010;53.986;12.106;2022-11-23T00:49:31;35.40;;;14.53;;
15818;SDS011;8010;53.986;12.106;2022-11-23T00:51:56;37.43;;;14.40;;
15818;SDS011;8010;53.986;12.106;2022-11-23T00:54:22;36.77;;;14.27;;
15818;SDS011;8010;53.986;12.106;2022-11-23T00:56:47;44.50;;;15.03;;
15818;SDS011;8010;53.986;12.106;2022-11-23T00:59:13;41.13;;;15.37;;
15818;SDS011;8010;53.986;12.106;2022-11-23T01:01:38;41.00;;;14.73;;
15818;SDS011;8010;53.986;12.106;2022-11-23T01:04:05;42.97;;;15.23;;
15818;SDS011;8010;53.986;12.106;2022-11-23T01:06:33;41.40;;;15.47;;
15818;SDS011;8010;53.986;12.106;2022-11-23T01:09:02;40.03;;;14.47;;
15818;SDS011;8010;53.986;12.106;2022-11-23T01:11:30;42.77;;;14.47;;
15818;SDS011;8010;53.986;12.106;2022-11-23T01:13:56;42.60;;;16.10;;
15818;SDS011;8010;53.986;12.106;2022-11-23T01:16:29;38.20;;;14.17;;
15818;SDS011;8010;53.986;12.106;2022-11-23T01:18:58;39.07;;;15.17;;
15818;SDS011;8010;53.986;12.106;2022-11-23T01:21:26;35.90;;;13.73;;
15818;SDS011;8010;53.986;12.106;2022-11-23T01:23:53;40.00;;;14.20;;
15818;SDS011;8010;53.986;12.106;2022-11-23T01:26:19;39.00;;;13.57;;
15818;SDS011;8010;53.986;12.106;2022-11-23T01:28:45;38.07;;;15.07;;
15818;SDS011;8010;53.986;12.106;2022-11-23T01:31:12;37.37;;;14.10;;
15818;SDS011;8010;53.986;12.106;2022-11-23T01:33:40;38.30;;;14.20;;
15818;SDS011;8010;53.986;12.106;2022-11-23T01:36:09;32.50;;;13.73;;
15818;SDS011;8010;53.986;12.106;2022-11-23T01:38:40;38.17;;;14.33;;
15818;SDS011;8010;53.986;12.106;2022-11-23T01:41:06;35.13;;;13.67;;
15818;SDS011;8010;53.986;12.106;2022-11-23T01:43:33;40.30;;;14.33;;
15818;SDS011;8010;53.986;12.106;2022-11-23T01:45:59;41.30;;;14.30;;
15818;SDS011;8010;53.986;12.106;2022-11-23T01:48:27;35.27;;;13.97;;
15818;SDS011;8010;53.986;12.106;2022-11-23T01:51:01;42.43;;;15.03;;
15818;SDS011;8010;53.986;12.106;2022-11-23T01:53:29;43.57;;;14.33;;
15818;SDS011;8010;53.986;12.106;2022-11-23T01:55:57;37.93;;;15.03;;
15818;SDS011;8010;53.986;12.106;2022-11-23T01:58:24;40.20;;;14.53;;
15818;SDS011;8010;53.986;12.106;2022-11-23T02:00:53;39.60;;;15.20;;
15818;SDS011;8010;53.986;12.106;2022-11-23T02:03:18;37.80;;;13.63;;
15818;SDS011;8010;53.986;12.106;2022-11-23T02:05:48;41.33;;;14.57;;
15818;SDS011;8010;53.986;12.106;2022-11-23T02:08:18;40.50;;;13.97;;
15818;SDS011;8010;53.986;12.106;2022-11-23T02:10:45;39.87;;;13.23;;
15818;SDS011;8010;53.986;12.106;2022-11-23T02:13:11;36.00;;;15.13;;
15818;SDS011;8010;53.986;12.106;2022-11-23T02:15:37;37.43;;;14.67;;
15818;SDS011;8010;53.986;12.106;2022-11-23T02:18:05;36.93;;;15.63;;
15818;SDS011;8010;53.986;12.106;2022-11-23T02:20:35;38.37;;;15.17;;
15818;SDS011;8010;53.986;12.106;2022-11-23T02:23:09;39.33;;;15.20;;
15818;SDS011;8010;53.986;12.106;2022-11-23T02:31:29;35.07;;;13.40;;
15818;SDS011;8010;53.986;12.106;2022-11-23T02:33:55;40.57;;;13.83;;
15818;SDS011;8010;53.986;12.106;2022-11-23T02:36:34;37.73;;;14.90;;
15818;SDS011;8010;53.986;12.106;2022-11-23T02:39:04;37.73;;;13.90;;
15818;SDS011;8010;53.986;12.106;2022-11-23T02:41:34;40.40;;;14.97;;
15818;SDS011;8010;53.986;12.106;2022-11-23T02:44:04;41.20;;;13.90;;
15818;SDS011;8010;53.986;12.106;2022-11-23T02:46:33;40.10;;;14.23;;
15818;SDS011;8010;53.986;12.106;2022-11-23T02:48:58;41.40;;;13.70;;
15818;SDS011;8010;53.986;12.106;2022-11-23T02:51:24;38.67;;;13.63;;
15818;SDS011;8010;53.986;12.106;2022-11-23T02:53:49;42.27;;;14.70;;
15818;SDS011;8010;53.986;12.106;2022-11-23T02:56:15;39.50;;;13.23;;
15818;SDS011;8010;53.986;12.106;2022-11-23T02:58:40;33.20;;;13.03;;
15818;SDS011;8010;53.986;12.106;2022-11-23T03:01:06;40.87;;;13.70;;
15818;SDS011;8010;53.986;12.106;2022-11-23T03:03:31;37.90;;;13.87;;
15818;SDS011;8010;53.986;12.106;2022-11-23T03:05:57;36.73;;;13.63;;
15818;SDS011;8010;53.986;12.106;2022-11-23T03:08:22;37.87;;;14.30;;
15818;SDS011;8010;53.986;12.106;2022-11-23T03:10:48;31.73;;;13.20;;
15818;SDS011;8010;53.986;12.106;2022-11-23T03:13:13;30.93;;;11.93;;
15818;SDS011;8010;53.986;12.106;2022-11-23T03:15:39;36.93;;;13.27;;
15818;SDS011;8010;53.986;12.106;2022-11-23T03:18:04;43.43;;;13.10;;
15818;SDS011;8010;53.986;12.106;2022-11-23T03:20:30;37.67;;;13.90;;
15818;SDS011;8010;53.986;12.106;2022-11-23T03:22:55;39.30;;;12.33;;
15818;SDS011;8010;53.986;12.106;2022-11-23T03:25:21;38.53;;;13.17;;
15818;SDS011;8010;53.986;12.106;2022-11-23T03:27:46;37.13;;;15.07;;
15818;SDS011;8010;53.986;12.106;2022-11-23T03:30:12;34.90;;;13.23;;
15818;SDS011;8010;53.986;12.106;2022-11-23T03:32:38;31.37;;;12.70;;
15818;SDS011;8010;53.986;12.106;2022-11-23T03:35:04;37.07;;;13.10;;
15818;SDS011;8010;53.986;12.106;2022-11-23T03:37:30;36.60;;;12.87;;
15818;SDS011;8010;53.986;12.106;2022-11-23T03:39:55;35.40;;;13.87;;
15818;SDS011;8010;53.986;12.106;2022-11-23T03:42:21;36.13;;;13.30;;
15818;SDS011;8010;53.986;12.106;2022-11-23T03:44:46;33.93;;;13.53;;
15818;SDS011;8010;53.986;12.106;2022-11-23T03:47:12;33.23;;;11.93;;
15818;SDS011;8010;53.986;12.106;2022-11-23T03:49:37;32.90;;;12.30;;
15818;SDS011;8010;53.986;12.106;2022-11-23T03:52:03;33.00;;;12.73;;
15818;SDS011;8010;53.986;12.106;2022-11-23T03:54:29;29.03;;;11.33;;
15818;SDS011;8010;53.986;12.106;2022-11-23T03:56:54;32.83;;;11.73;;
15818;SDS011;8010;53.986;12.106;2022-11-23T03:59:20;35.97;;;13.07;;
15818;SDS011;8010;53.986;12.106;2022-11-23T04:01:45;33.83;;;12.87;;
15818;SDS011;8010;53.986;12.106;2022-11-23T04:04:11;29.87;;;12.13;;
15818;SDS011;8010;53.986;12.106;2022-11-23T04:06:36;30.97;;;12.23;;
15818;SDS011;8010;53.986;12.106;2022-11-23T04:09:02;32.67;;;13.63;;
15818;SDS011;8010;53.986;12.106;2022-11-23T04:11:28;31.70;;;13.00;;
15818;SDS011;8010;53.986;12.106;2022-11-23T04:13:53;32.77;;;13.47;;
15818;SDS011;8010;53.986;12.106;2022-11-23T04:16:19;35.90;;;13.17;;
15818;SDS011;8010;53.986;12.106;2022-11-23T04:18:44;33.27;;;13.33;;
15818;SDS011;8010;53.986;12.106;2022-11-23T04:21:10;28.97;;;12.30;;
15818;SDS011;8010;53.986;12.106;2022-11-23T04:23:35;34.43;;;14.20;;
15818;SDS011;8010;53.986;12.106;2022-11-23T04:26:01;36.57;;;12.70;;
15818;SDS011;8010;53.986;12.106;2022-11-23T04:28:26;33.77;;;12.50;;
15818;SDS011;8010;53.986;12.106;2022-11-23T04:30:52;30.13;;;11.83;;
15818;SDS011;8010;53.986;12.106;2022-11-23T04:33:17;33.47;;;13.70;;
15818;SDS011;8010;53.986;12.106;2022-11-23T04:35:43;31.80;;;13.20;;
15818;SDS011;8010;53.986;12.106;2022-11-23T04:38:08;33.70;;;12.80;;
15818;SDS011;8010;53.986;12.106;2022-11-23T04:40:34;33.83;;;14.10;;
15818;SDS011;8010;53.986;12.106;2022-11-23T04:42:59;35.03;;;13.47;;
15818;SDS011;8010;53.986;12.106;2022-11-23T04:45:25;34.60;;;13.57;;
15818;SDS011;8010;53.986;12.106;2022-11-23T04:47:51;30.47;;;12.90;;
15818;SDS011;8010;53.986;12.106;2022-11-23T04:50:16;33.90;;;13.03;;
15818;SDS011;8010;53.986;12.106;2022-11-23T04:52:42;29.30;;;12.40;;
15818;SDS011;8010;53.986;12.106;2022-11-23T04:55:07;39.53;;;13.80;;
15818;SDS011;8010;53.986;12.106;2022-11-23T04:57:33;28.20;;;12.03;;
15818;SDS011;8010;53.986;12.106;2022-11-23T04:59:59;28.13;;;13.33;;
15818;SDS011;8010;53.986;12.106;2022-11-23T05:02:24;38.00;;;14.00;;
15818;SDS011;8010;53.986;12.106;2022-11-23T05:04:50;34.17;;;13.53;;
15818;SDS011;8010;53.986;12.106;2022-11-23T05:07:15;31.37;;;14.20;;
15818;SDS011;8010;53.986;12.106;2022-11-23T05:09:41;35.03;;;12.60;;
15818;SDS011;8010;53.986;12.106;2022-11-23T05:12:08;35.33;;;12.47;;
15818;SDS011;8010;53.986;12.106;2022-11-23T05:14:33;34.63;;;13.63;;
15818;SDS011;8010;53.986;12.106;2022-11-23T05:16:59;32.73;;;12.37;;
15818;SDS011;8010;53.986;12.106;2022-11-23T05:19:24;33.37;;;13.20;;
15818;SDS011;8010;53.986;12.106;2022-11-23T05:21:50;34.40;;;13.20;;
15818;SDS011;8010;53.986;12.106;2022-11-23T05:24:15;37.03;;;14.03;;
15818;SDS011;8010;53.986;12.106;2022-11-23T05:26:41;35.90;;;14.63;;
15818;SDS011;8010;53.986;12.106;2022-11-23T05:29:06;33.40;;;13.53;;
15818;SDS011;8010;53.986;12.106;2022-11-23T05:31:32;33.80;;;14.17;;
15818;SDS011;8010;53.986;12.106;2022-11-23T05:33:58;33.17;;;13.33;;
15818;SDS011;8010;53.986;12.106;2022-11-23T05:36:23;31.00;;;12.30;;
15818;SDS011;8010;53.986;12.106;2022-11-23T05:38:49;33.50;;;14.13;;
15818;SDS011;8010;53.986;12.106;2022-11-23T05:41:15;32.50;;;13.27;;
15818;SDS011;8010;53.986;12.106;2022-11-23T05:43:41;28.33;;;12.83;;
15818;SDS011;8010;53.986;12.106;2022-11-23T05:46:06;29.10;;;12.67;;
15818;SDS011;8010;53.986;12.106;2022-11-23T05:48:32;35.83;;;13.47;;
15818;SDS011;8010;53.986;12.106;2022-11-23T05:50:57;37.03;;;13.17;;
15818;SDS011;8010;53.986;12.106;2022-11-23T05:53:23;34.17;;;13.43;;
15818;SDS011;8010;53.986;12.106;2022-11-23T05:55:48;31.83;;;13.17;;
15818;SDS011;8010;53.986;12.106;2022-11-23T05:58:14;30.23;;;13.67;;
15818;SDS011;8010;53.986;12.106;2022-11-23T06:00:39;35.37;;;13.70;;
15818;SDS011;8010;53.986;12.106;2022-11-23T06:03:05;36.33;;;13.57;;
15818;SDS011;8010;53.986;12.106;2022-11-23T06:05:30;32.23;;;14.10;;
15818;SDS011;8010;53.986;12.106;2022-11-23T06:07:56;33.03;;;13.83;;
15818;SDS011;8010;53.986;12.106;2022-11-23T06:10:21;32.10;;;14.37;;
15818;SDS011;8010;53.986;12.106;2022-11-23T06:12:47;37.27;;;14.33;;
15818;SDS011;8010;53.986;12.106;2022-11-23T06:15:14;29.77;;;12.43;;
15818;SDS011;8010;53.986;12.106;2022-11-23T06:17:40;33.90;;;14.00;;
15818;SDS011;8010;53.986;12.106;2022-11-23T06:20:05;35.90;;;13.30;;
15818;SDS011;8010;53.986;12.106;2022-11-23T06:22:32;31.27;;;14.27;;
15818;SDS011;8010;53.986;12.106;2022-11-23T06:24:58;33.40;;;13.33;;
15818;SDS011;8010;53.986;12.106;2022-11-23T06:27:23;34.60;;;14.20;;
15818;SDS011;8010;53.986;12.106;2022-11-23T06:29:49;34.67;;;13.97;;
15818;SDS011;8010;53.986;12.106;2022-11-23T06:32:15;30.00;;;14.37;;
15818;SDS011;8010;53.986;12.106;2022-11-23T06:34:40;34.97;;;14.83;;
15818;SDS011;8010;53.986;12.106;2022-11-23T06:37:06;33.47;;;14.27;;
15818;SDS011;8010;53.986;12.106;2022-11-23T06:39:32;35.00;;;15.37;;
15818;SDS011;8010;53.986;12.106;2022-11-23T06:41:57;33.30;;;14.30;;
15818;SDS011;8010;53.986;12.106;2022-11-23T06:44:23;39.10;;;14.33;;
15818;SDS011;8010;53.986;12.106;2022-11-23T06:46:48;36.27;;;12.87;;
15818;SDS011;8010;53.986;12.106;2022-11-23T06:49:14;33.43;;;13.97;;
15818;SDS011;8010;53.986;12.106;2022-11-23T06:51:41;34.13;;;15.23;;
15818;SDS011;8010;53.986;12.106;2022-11-23T06:54:07;36.53;;;15.17;;
15818;SDS011;8010;53.986;12.106;2022-11-23T06:56:32;36.40;;;14.53;;
15818;SDS011;8010;53.986;12.106;2022-11-23T06:58:58;31.10;;;14.10;;
15818;SDS011;8010;53.986;12.106;2022-11-23T07:01:24;31.87;;;14.20;;
15818;SDS011;8010;53.986;12.106;2022-11-23T07:03:49;31.00;;;13.07;;
15818;SDS011;8010;53.986;12.106;2022-11-23T07:06:15;29.60;;;13.50;;
15818;SDS011;8010;53.986;12.106;2022-11-23T07:08:40;33.03;;;14.60;;
15818;SDS011;8010;53.986;12.106;2022-11-23T07:11:08;34.13;;;13.93;;
15818;SDS011;8010;53.986;12.106;2022-11-23T07:13:34;37.27;;;13.97;;
15818;SDS011;8010;53.986;12.106;2022-11-23T07:16:00;29.47;;;13.20;;
15818;SDS011;8010;53.986;12.106;2022-11-23T07:18:26;36.40;;;14.00;;
15818;SDS011;8010;53.986;12.106;2022-11-23T07:20:53;36.67;;;15.37;;
15818;SDS011;8010;53.986;12.106;2022-11-23T07:23:21;37.07;;;14.37;;
15818;SDS011;8010;53.986;12.106;2022-11-23T07:25:46;34.80;;;14.77;;
15818;SDS011;8010;53.986;12.106;2022-11-23T07:28:12;33.27;;;13.67;;
15818;SDS011;8010;53.986;12.106;2022-11-23T07:30:38;32.90;;;13.50;;
15818;SDS011;8010;53.986;12.106;2022-11-23T07:33:05;33.00;;;14.03;;
15818;SDS011;8010;53.986;12.106;2022-11-23T07:35:35;32.27;;;13.47;;
15818;SDS011;8010;53.986;12.106;2022-11-23T07:38:02;31.37;;;13.43;;
15818;SDS011;8010;53.986;12.106;2022-11-23T07:40:27;32.43;;;14.37;;
15818;SDS011;8010;53.986;12.106;2022-11-23T07:42:58;29.60;;;13.50;;
15818;SDS011;8010;53.986;12.106;2022-11-23T07:45:24;38.30;;;13.43;;
15818;SDS011;8010;53.986;12.106;2022-11-23T07:47:56;32.37;;;13.17;;
15818;SDS011;8010;53.986;12.106;2022-11-23T07:50:23;30.30;;;14.23;;
15818;SDS011;8010;53.986;12.106;2022-11-23T07:52:48;30.23;;;14.63;;
15818;SDS011;8010;53.986;12.106;2022-11-23T07:55:14;34.47;;;13.97;;
15818;SDS011;8010;53.986;12.106;2022-11-23T07:57:39;36.87;;;13.47;;
15818;SDS011;8010;53.986;12.106;2022-11-23T08:00:05;29.20;;;13.43;;
15818;SDS011;8010;53.986;12.106;2022-11-23T08:02:31;31.13;;;12.43;;
15818;SDS011;8010;53.986;12.106;2022-11-23T08:04:57;30.77;;;12.93;;
15818;SDS011;8010;53.986;12.106;2022-11-23T08:07:22;31.33;;;13.50;;
15818;SDS011;8010;53.986;12.106;2022-11-23T08:09:48;35.90;;;14.23;;
15818;SDS011;8010;53.986;12.106;2022-11-23T08:12:14;33.63;;;13.90;;
15818;SDS011;8010;53.986;12.106;2022-11-23T08:14:39;35.30;;;13.83;;
15818;SDS011;8010;53.986;12.106;2022-11-23T08:17:05;30.27;;;13.57;;
15818;SDS011;8010;53.986;12.106;2022-11-23T08:19:30;32.57;;;13.60;;
15818;SDS011;8010;53.986;12.106;2022-11-23T08:21:56;29.50;;;14.03;;
15818;SDS011;8010;53.986;12.106;2022-11-23T08:24:21;25.63;;;12.37;;
15818;SDS011;8010;53.986;12.106;2022-11-23T08:26:47;33.47;;;13.70;;
15818;SDS011;8010;53.986;12.106;2022-11-23T08:29:13;30.80;;;12.90;;
15818;SDS011;8010;53.986;12.106;2022-11-23T08:31:38;31.83;;;13.77;;
15818;SDS011;8010;53.986;12.106;2022-11-23T08:34:04;27.60;;;13.23;;
15818;SDS011;8010;53.986;12.106;2022-11-23T08:36:29;34.00;;;13.50;;
15818;SDS011;8010;53.986;12.106;2022-11-23T08:38:55;30.23;;;12.63;;
15818;SDS011;8010;53.986;12.106;2022-11-23T08:41:20;28.70;;;13.43;;
15818;SDS011;8010;53.986;12.106;2022-11-23T08:43:46;32.87;;;13.37;;
15818;SDS011;8010;53.986;12.106;2022-11-23T08:46:12;30.30;;;13.27;;
15818;SDS011;8010;53.986;12.106;2022-11-23T08:48:38;34.60;;;13.70;;
15818;SDS011;8010;53.986;12.106;2022-11-23T08:51:03;34.67;;;13.87;;
15818;SDS011;8010;53.986;12.106;2022-11-23T08:53:29;34.57;;;13.03;;
15818;SDS011;8010;53.986;12.106;2022-11-23T08:55:54;28.70;;;12.40;;
15818;SDS011;8010;53.986;12.106;2022-11-23T08:58:20;29.90;;;13.27;;
15818;SDS011;8010;53.986;12.106;2022-11-23T09:00:46;25.60;;;12.80;;
15818;SDS011;8010;53.986;12.106;2022-11-23T09:03:11;32.07;;;14.07;;
15818;SDS011;8010;53.986;12.106;2022-11-23T09:05:37;28.37;;;13.03;;
15818;SDS011;8010;53.986;12.106;2022-11-23T09:08:03;27.80;;;13.40;;
15818;SDS011;8010;53.986;12.106;2022-11-23T09:10:29;30.10;;;13.60;;
15818;SDS011;8010;53.986;12.106;2022-11-23T09:12:54;29.90;;;13.33;;
15818;SDS011;8010;53.986;12.106;2022-11-23T09:15:20;28.63;;;12.90;;
15818;SDS011;8010;53.986;12.106;2022-11-23T09:17:46;29.67;;;12.47;;
15818;SDS011;8010;53.986;12.106;2022-11-23T09:20:11;32.67;;;14.60;;
15818;SDS011;8010;53.986;12.106;2022-11-23T09:22:37;28.80;;;12.93;;
15818;SDS011;8010;53.986;12.106;2022-11-23T09:25:03;32.07;;;13.50;;
15818;SDS011;8010;53.986;12.106;2022-11-23T09:27:30;27.77;;;13.57;;
15818;SDS011;8010;53.986;12.106;2022-11-23T09:29:56;28.13;;;13.70;;
15818;SDS011;8010;53.986;12.106;2022-11-23T09:32:22;28.57;;;12.10;;
15818;SDS011;8010;53.986;12.106;2022-11-23T09:34:47;29.73;;;13.43;;
15818;SDS011;8010;53.986;12.106;2022-11-23T09:37:13;30.17;;;13.20;;
15818;SDS011;8010;53.986;12.106;2022-11-23T09:39:39;28.90;;;12.97;;
15818;SDS011;8010;53.986;12.106;2022-11-23T09:50:14;32.90;;;13.77;;
15818;SDS011;8010;53.986;12.106;2022-11-23T09:52:48;21.13;;;11.23;;
15818;SDS011;8010;53.986;12.106;2022-11-23T09:58:03;27.60;;;12.37;;
15818;SDS011;8010;53.986;12.106;2022-11-23T10:00:36;28.83;;;12.83;;
15818;SDS011;8010;53.986;12.106;2022-11-23T10:03:10;30.60;;;12.97;;
15818;SDS011;8010;53.986;12.106;2022-11-23T10:05:39;23.50;;;11.33;;
15818;SDS011;8010;53.986;12.106;2022-11-23T10:10:38;29.23;;;13.50;;
15818;SDS011;8010;53.986;12.106;2022-11-23T10:13:21;27.60;;;12.93;;
15818;SDS011;8010;53.986;12.106;2022-11-23T10:16:02;24.20;;;12.63;;
15818;SDS011;8010;53.986;12.106;2022-11-23T10:21:35;24.73;;;11.63;;
15818;SDS011;8010;53.986;12.106;2022-11-23T10:24:10;23.73;;;12.80;;
15818;SDS011;8010;53.986;12.106;2022-11-23T10:26:44;22.83;;;11.77;;
15818;SDS011;8010;53.986;12.106;2022-11-23T10:29:25;24.67;;;11.87;;
15818;SDS011;8010;53.986;12.106;2022-11-23T10:31:54;25.53;;;11.80;;
15818;SDS011;8010;53.986;12.106;2022-11-23T10:34:24;27.87;;;11.77;;
15818;SDS011;8010;53.986;12.106;2022-11-23T10:36:59;23.27;;;10.67;;
15818;SDS011;8010;53.986;12.106;2022-11-23T10:39:26;24.70;;;11.97;;
15818;SDS011;8010;53.986;12.106;2022-11-23T10:41:57;25.03;;;13.87;;
15818;SDS011;8010;53.986;12.106;2022-11-23T10:44:29;25.23;;;12.13;;
15818;SDS011;8010;53.986;12.106;2022-11-23T10:46:58;24.43;;;11.10;;
15818;SDS011;8010;53.986;12.106;2022-11-23T10:49:28;23.97;;;12.10;;
15818;SDS011;8010;53.986;12.106;2022-11-23T10:51:58;24.00;;;11.97;;
15818;SDS011;8010;53.986;12.106;2022-11-23T10:54:34;25.87;;;11.80;;
15818;SDS011;8010;53.986;12.106;2022-11-23T10:57:19;26.27;;;11.97;;
15818;SDS011;8010;53.986;12.106;2022-11-23T11:00:04;26.13;;;13.03;;
15818;SDS011;8010;53.986;12.106;2022-11-23T11:02:47;29.40;;;13.10;;
15818;SDS011;8010;53.986;12.106;2022-11-23T11:07:52;25.60;;;11.87;;
15818;SDS011;8010;53.986;12.106;2022-11-23T11:10:33;27.20;;;11.67;;
15818;SDS011;8010;53.986;12.106;2022-11-23T11:13:19;21.50;;;11.97;;
15818;SDS011;8010;53.986;12.106;2022-11-23T11:16:09;23.40;;;10.87;;
15818;SDS011;8010;53.986;12.106;2022-11-23T11:18:42;23.23;;;11.70;;
15818;SDS011;8010;53.986;12.106;2022-11-23T11:21:21;21.97;;;12.43;;
15818;SDS011;8010;53.986;12.106;2022-11-23T11:24:05;26.73;;;12.13;;
15818;SDS011;8010;53.986;12.106;2022-11-23T11:26:37;24.03;;;11.47;;
15818;SDS011;8010;53.986;12.106;2022-11-23T11:29:23;23.47;;;11.87;;
15818;SDS011;8010;53.986;12.106;2022-11-23T11:32:03;24.07;;;11.40;;
15818;SDS011;8010;53.986;12.106;2022-11-23T11:34:45;21.57;;;11.33;;
15818;SDS011;8010;53.986;12.106;2022-11-23T11:37:39;18.93;;;10.43;;
15818;SDS011;8010;53.986;12.106;2022-11-23T11:43:33;21.43;;;11.07;;
15818;SDS011;8010;53.986;12.106;2022-11-23T11:46:20;24.60;;;10.70;;
15818;SDS011;8010;53.986;12.106;2022-11-23T11:48:54;18.07;;;9.83;;
15818;SDS011;8010;53.986;12.106;2022-11-23T11:51:28;22.27;;;10.60;;
15818;SDS011;8010;53.986;12.106;2022-11-23T11:54:05;25.40;;;10.33;;
15818;SDS011;8010;53.986;12.106;2022-11-23T11:56:53;23.17;;;11.83;;
15818;SDS011;8010;53.986;12.106;2022-11-23T11:59:39;21.27;;;10.47;;
15818;SDS011;8010;53.986;12.106;2022-11-23T12:02:16;23.47;;;10.83;;
15818;SDS011;8010;53.986;12.106;2022-11-23T12:07:32;21.73;;;11.17;;
15818;SDS011;8010;53.986;12.106;2022-11-23T12:10:22;21.83;;;10.30;;
15818;SDS011;8010;53.986;12.106;2022-11-23T12:12:52;19.83;;;10.90;;
15818;SDS011;8010;53.986;12.106;2022-11-23T12:15:20;19.30;;;9.73;;
15818;SDS011;8010;53.986;12.106;2022-11-23T12:18:09;22.00;;;10.53;;
15818;SDS011;8010;53.986;12.106;2022-11-23T12:20:50;18.17;;;10.57;;
15818;SDS011;8010;53.986;12.106;2022-11-23T12:23:36;21.13;;;10.13;;
15818;SDS011;8010;53.986;12.106;2022-11-23T12:26:10;20.53;;;9.77;;
15818;SDS011;8010;53.986;12.106;2022-11-23T12:29:03;18.30;;;8.90;;
15818;SDS011;8010;53.986;12.106;2022-11-23T12:31:47;18.30;;;9.60;;
15818;SDS011;8010;53.986;12.106;2022-11-23T12:46:21;18.20;;;9.17;;
15818;SDS011;8010;53.986;12.106;2022-11-23T12:51:29;18.53;;;9.50;;
15818;SDS011;8010;53.986;12.106;2022-11-23T12:56:48;17.80;;;9.03;;
15818;SDS011;8010;53.986;12.106;2022-11-23T12:59:29;18.73;;;9.53;;
15818;SDS011;8010;53.986;12.106;2022-11-23T13:02:08;21.70;;;8.90;;
15818;SDS011;8010;53.986;12.106;2022-11-23T13:10:29;20.90;;;10.33;;
15818;SDS011;8010;53.986;12.106;2022-11-23T13:18:35;17.80;;;9.53;;
15818;SDS011;8010;53.986;12.106;2022-11-23T13:23:52;22.90;;;10.17;;
15818;SDS011;8010;53.986;12.106;2022-11-23T13:26:18;21.90;;;9.63;;
15818;SDS011;8010;53.986;12.106;2022-11-23T13:28:46;16.37;;;9.43;;
15818;SDS011;8010;53.986;12.106;2022-11-23T13:33:39;19.30;;;10.03;;
15818;SDS011;8010;53.986;12.106;2022-11-23T13:36:09;17.17;;;8.70;;
15818;SDS011;8010;53.986;12.106;2022-11-23T13:38:53;18.53;;;8.73;;
15818;SDS011;8010;53.986;12.106;2022-11-23T13:44:23;16.70;;;9.43;;
15818;SDS011;8010;53.986;12.106;2022-11-23T13:47:01;17.00;;;9.23;;
15818;SDS011;8010;53.986;12.106;2022-11-23T13:54:54;17.10;;;9.70;;
15818;SDS011;8010;53.986;12.106;2022-11-23T13:57:29;18.20;;;10.07;;
15818;SDS011;8010;53.986;12.106;2022-11-23T14:06:02;17.20;;;9.37;;
15818;SDS011;8010;53.986;12.106;2022-11-23T14:08:34;18.63;;;9.70;;
15818;SDS011;8010;53.986;12.106;2022-11-23T14:11:08;20.43;;;10.47;;
15818;SDS011;8010;53.986;12.106;2022-11-23T14:13:36;16.97;;;9.67;;
15818;SDS011;8010;53.986;12.106;2022-11-23T14:16:02;19.70;;;10.10;;
15818;SDS011;8010;53.986;12.106;2022-11-23T14:18:33;17.70;;;9.70;;
15818;SDS011;8010;53.986;12.106;2022-11-23T14:21:10;19.77;;;9.83;;
15818;SDS011;8010;53.986;12.106;2022-11-23T14:32:27;20.97;;;10.03;;
15818;SDS011;8010;53.986;12.106;2022-11-23T14:35:19;21.07;;;10.03;;
15818;SDS011;8010;53.986;12.106;2022-11-23T14:43:23;18.30;;;9.93;;
15818;SDS011;8010;53.986;12.106;2022-11-23T14:45:50;17.83;;;9.57;;
15818;SDS011;8010;53.986;12.106;2022-11-23T14:48:20;16.47;;;10.00;;
15818;SDS011;8010;53.986;12.106;2022-11-23T14:50:52;16.77;;;8.93;;
15818;SDS011;8010;53.986;12.106;2022-11-23T14:53:45;17.30;;;9.50;;
15818;SDS011;8010;53.986;12.106;2022-11-23T14:56:37;14.67;;;8.40;;
15818;SDS011;8010;53.986;12.106;2022-11-23T15:01:58;19.30;;;9.97;;
15818;SDS011;8010;53.986;12.106;2022-11-23T15:04:32;17.57;;;10.00;;
15818;SDS011;8010;53.986;12.106;2022-11-23T15:07:15;17.83;;;9.00;;
15818;SDS011;8010;53.986;12.106;2022-11-23T15:09:48;20.00;;;9.70;;
15818;SDS011;8010;53.986;12.106;2022-11-23T15:12:26;19.93;;;9.77;;
15818;SDS011;8010;53.986;12.106;2022-11-23T15:14:54;21.27;;;11.00;;
15818;SDS011;8010;53.986;12.106;2022-11-23T15:17:23;18.50;;;9.90;;
15818;SDS011;8010;53.986;12.106;2022-11-23T15:19:56;20.17;;;9.63;;
15818;SDS011;8010;53.986;12.106;2022-11-23T15:22:23;22.63;;;11.17;;
15818;SDS011;8010;53.986;12.106;2022-11-23T15:24:49;21.40;;;10.33;;
15818;SDS011;8010;53.986;12.106;2022-11-23T15:27:16;18.50;;;10.83;;
15818;SDS011;8010;53.986;12.106;2022-11-23T15:29:57;16.53;;;9.37;;
15818;SDS011;8010;53.986;12.106;2022-11-23T15:32:30;19.07;;;10.63;;
15818;SDS011;8010;53.986;12.106;2022-11-23T15:34:57;20.50;;;9.80;;
15818;SDS011;8010;53.986;12.106;2022-11-23T15:37:25;19.43;;;9.97;;
15818;SDS011;8010;53.986;12.106;2022-11-23T15:39:52;25.03;;;11.00;;
15818;SDS011;8010;53.986;12.106;2022-11-23T15:42:20;19.23;;;10.93;;
15818;SDS011;8010;53.986;12.106;2022-11-23T15:44:48;19.47;;;11.07;;
15818;SDS011;8010;53.986;12.106;2022-11-23T15:47:24;18.50;;;9.07;;
15818;SDS011;8010;53.986;12.106;2022-11-23T15:49:59;25.43;;;10.10;;
15818;SDS011;8010;53.986;12.106;2022-11-23T15:52:26;20.20;;;9.30;;
15818;SDS011;8010;53.986;12.106;2022-11-23T15:55:00;20.50;;;11.40;;
15818;SDS011;8010;53.986;12.106;2022-11-23T15:57:36;19.90;;;10.07;;
15818;SDS011;8010;53.986;12.106;2022-11-23T16:00:04;22.13;;;10.77;;
15818;SDS011;8010;53.986;12.106;2022-11-23T16:02:31;21.17;;;10.63;;
15818;SDS011;8010;53.986;12.106;2022-11-23T16:07:56;24.83;;;10.57;;
15818;SDS011;8010;53.986;12.106;2022-11-23T16:10:24;25.73;;;11.53;;
15818;SDS011;8010;53.986;12.106;2022-11-23T16:12:59;20.07;;;10.43;;